TA48 weather

Hawk Nest Heliport
Argyle, Texas, United States

Public forecast

Using degrees Fahrenheit for public forecast. Weather courtesy of forecast.io.

METAR (pilot weather report)

Closest report is Denton Municipal Airport, 4.9 nm (9.1 km) NNW. Retrieved 2019/07/20 16:53 UTC (59 minutes ago):

KDTO 201653Z 17011G18KT 10SM CLR 33/20 A2996 RMK AO2 SLP134 T03280200

TAF (pilot weather forecast)

Closest forecast is Fort Worth Alliance Airport, 11.8 nm (21.9 km) SW. Retrieved 2019/07/20 12:27 UTC (5 hours ago):

TAF KAFW 201125Z 2012/2112 17015KT P6SM FEW250